Time;durP1;ratioP1;P1;durP2;ratioP2;P2;SDS_P1;SDS_P2;PMS_P1;PMS_P2;Temp;Humidity;BMP_temperature;BMP_pressure;BME280_temperature;BME280_humidity;BME280_pressure;Samples;Min_cycle;Max_cycle;Signal;HPM_P1;HPM_P2
2022/07/05 00:01:17;;;;;;;1.98;1.92;;;;;;;;;;5056183;28;20633;-69
2022/07/05 00:03:43;;;;;;;1.70;1.60;;;;;;;;;;5056273;28;20213;-69
2022/07/05 00:06:09;;;;;;;2.35;1.70;;;;;;;;;;5056007;28;20213;-69
2022/07/05 00:08:35;;;;;;;1.85;1.60;;;;;;;;;;5055479;28;20462;-69
2022/07/05 00:11:03;;;;;;;1.85;1.55;;;;;;;;;;5056055;28;20229;-69
2022/07/05 00:13:29;;;;;;;2.17;1.88;;;;;;;;;;5056118;28;20542;-69
2022/07/05 00:15:56;;;;;;;2.78;1.98;;;;;;;;;;5055641;28;20209;-69
2022/07/05 00:18:22;;;;;;;1.92;1.90;;;;;;;;;;5055704;28;20214;-69
2022/07/05 00:20:48;;;;;;;3.60;1.65;;;;;;;;;;5059877;28;20520;-69
2022/07/05 00:23:15;;;;;;;2.42;2.33;;;;;;;;;;5059943;28;20441;-69
2022/07/05 00:25:41;;;;;;;2.20;2.10;;;;;;;;;;5059599;28;20216;-69
2022/07/05 00:28:10;;;;;;;2.55;2.00;;;;;;;;;;5058989;28;20306;-69
2022/07/05 00:30:36;;;;;;;1.90;1.80;;;;;;;;;;5059093;28;20224;-69
2022/07/05 00:33:03;;;;;;;1.70;1.60;;;;;;;;;;5059563;28;20232;-69
2022/07/05 00:35:29;;;;;;;5.93;2.33;;;;;;;;;;5059410;28;20474;-68
2022/07/05 00:37:55;;;;;;;4.28;2.13;;;;;;;;;;5058886;28;20209;-68
2022/07/05 00:40:22;;;;;;;2.03;1.83;;;;;;;;;;5059354;28;20407;-68
2022/07/05 00:42:48;;;;;;;2.40;2.15;;;;;;;;;;5059451;28;20517;-68
2022/07/05 00:45:16;;;;;;;1.90;1.90;;;;;;;;;;5059729;28;20213;-68
2022/07/05 00:47:42;;;;;;;3.17;1.90;;;;;;;;;;5059687;28;20628;-68
2022/07/05 00:50:09;;;;;;;3.70;2.20;;;;;;;;;;5059380;28;20243;-68
2022/07/05 00:52:35;;;;;;;2.22;2.10;;;;;;;;;;5059302;28;20519;-69
2022/07/05 00:55:01;;;;;;;2.10;2.00;;;;;;;;;;5059030;28;20483;-69
2022/07/05 00:57:28;;;;;;;2.42;1.60;;;;;;;;;;5058571;28;20232;-69
2022/07/05 00:59:54;;;;;;;2.17;2.05;;;;;;;;;;5058738;28;20292;-69
2022/07/05 01:02:23;;;;;;;2.08;1.95;;;;;;;;;;5058754;28;20216;-69
2022/07/05 01:04:50;;;;;;;2.22;2.00;;;;;;;;;;5058597;28;20316;-69
2022/07/05 01:07:17;;;;;;;4.35;1.80;;;;;;;;;;5058255;28;20216;-69
2022/07/05 01:09:43;;;;;;;1.95;1.85;;;;;;;;;;5058343;28;20219;-68
2022/07/05 01:12:10;;;;;;;2.13;1.80;;;;;;;;;;5058652;28;20236;-68
2022/07/05 01:14:36;;;;;;;6.00;2.38;;;;;;;;;;5058811;28;20208;-68
2022/07/05 01:17:03;;;;;;;3.53;2.00;;;;;;;;;;5058275;28;20212;-68
2022/07/05 01:19:31;;;;;;;2.20;2.10;;;;;;;;;;5055833;28;20217;-68
2022/07/05 01:21:58;;;;;;;3.53;2.00;;;;;;;;;;5055910;28;20212;-68
2022/07/05 01:24:25;;;;;;;2.05;1.95;;;;;;;;;;5055956;28;20532;-68
2022/07/05 01:26:53;;;;;;;2.28;2.05;;;;;;;;;;5038171;28;20210;-68
2022/07/05 01:29:20;;;;;;;2.72;2.30;;;;;;;;;;5037661;28;20228;-68
2022/07/05 01:31:46;;;;;;;3.03;2.13;;;;;;;;;;5038412;28;20217;-68
2022/07/05 01:34:12;;;;;;;2.40;2.20;;;;;;;;;;5038208;28;20210;-69
2022/07/05 01:36:39;;;;;;;2.15;2.08;;;;;;;;;;5038129;28;20232;-69
2022/07/05 01:39:06;;;;;;;2.70;2.60;;;;;;;;;;5037872;28;20218;-69
2022/07/05 01:41:34;;;;;;;2.20;2.10;;;;;;;;;;5038646;28;20213;-69
2022/07/05 01:44:01;;;;;;;2.05;1.95;;;;;;;;;;5038567;28;20210;-69
2022/07/05 01:46:32;;;;;;;3.35;2.00;;;;;;;;;;5038223;28;20210;-69
2022/07/05 01:49:00;;;;;;;4.07;2.25;;;;;;;;;;5038055;28;20556;-69
2022/07/05 01:51:30;;;;;;;4.75;1.90;;;;;;;;;;5038555;28;20225;-68
2022/07/05 01:53:56;;;;;;;1.90;1.80;;;;;;;;;;5038300;28;20393;-68
2022/07/05 01:56:23;;;;;;;2.20;2.00;;;;;;;;;;5037753;28;20205;-68
2022/07/05 01:58:52;;;;;;;2.78;2.10;;;;;;;;;;5037146;28;20214;-69
2022/07/05 02:01:31;;;;;;;3.70;1.80;;;;;;;;;;5037707;28;20256;-69
2022/07/05 02:03:58;;;;;;;3.47;2.30;;;;;;;;;;5038056;28;20232;-69
2022/07/05 02:06:24;;;;;;;2.10;2.00;;;;;;;;;;5037768;28;20504;-68
2022/07/05 02:08:50;;;;;;;2.08;1.95;;;;;;;;;;5037270;28;20213;-68
2022/07/05 02:11:16;;;;;;;2.42;2.03;;;;;;;;;;5054592;28;20517;-68
2022/07/05 02:13:43;;;;;;;2.10;1.63;;;;;;;;;;5057535;28;20222;-68
2022/07/05 02:16:10;;;;;;;2.42;1.88;;;;;;;;;;5057718;28;20208;-68
2022/07/05 02:18:37;;;;;;;2.38;2.00;;;;;;;;;;5057131;28;20209;-68
2022/07/05 02:21:03;;;;;;;2.38;2.10;;;;;;;;;;5058032;28;20467;-69
2022/07/05 02:23:29;;;;;;;1.92;1.83;;;;;;;;;;5057517;28;20209;-69
2022/07/05 02:25:56;;;;;;;2.55;2.40;;;;;;;;;;5057307;28;20412;-69
2022/07/05 02:28:22;;;;;;;2.67;2.47;;;;;;;;;;5057119;28;20215;-69
2022/07/05 02:30:48;;;;;;;2.20;2.10;;;;;;;;;;5057721;28;20430;-68
2022/07/05 02:33:16;;;;;;;3.33;2.35;;;;;;;;;;5057316;28;20209;-68
2022/07/05 02:35:42;;;;;;;2.45;2.35;;;;;;;;;;5057435;28;20473;-68
2022/07/05 02:38:09;;;;;;;2.88;2.00;;;;;;;;;;5056375;28;20201;-68
2022/07/05 02:40:35;;;;;;;2.83;2.60;;;;;;;;;;5056935;28;20613;-68
2022/07/05 02:43:01;;;;;;;3.92;2.22;;;;;;;;;;5056188;28;20209;-68
2022/07/05 02:45:27;;;;;;;2.30;2.20;;;;;;;;;;5056991;28;20520;-68
2022/07/05 02:47:54;;;;;;;2.65;2.33;;;;;;;;;;5056478;28;20232;-68
2022/07/05 02:50:22;;;;;;;3.55;2.45;;;;;;;;;;5056289;28;20570;-68
2022/07/05 02:52:48;;;;;;;2.60;2.22;;;;;;;;;;5057284;28;20208;-68
2022/07/05 02:55:14;;;;;;;2.30;2.10;;;;;;;;;;5057130;28;20216;-68
2022/07/05 02:57:40;;;;;;;2.10;2.00;;;;;;;;;;5056480;28;20212;-68
2022/07/05 03:00:07;;;;;;;2.80;2.53;;;;;;;;;;5056757;28;20386;-68
2022/07/05 03:02:33;;;;;;;3.70;2.08;;;;;;;;;;5056785;28;20580;-68
2022/07/05 03:05:00;;;;;;;2.90;2.38;;;;;;;;;;5056701;28;20225;-68
2022/07/05 03:07:27;;;;;;;2.10;2.00;;;;;;;;;;5056349;28;20208;-68
2022/07/05 03:09:54;;;;;;;2.33;2.10;;;;;;;;;;5056213;28;20244;-68
2022/07/05 03:12:20;;;;;;;3.90;2.42;;;;;;;;;;5056548;28;20209;-69
2022/07/05 03:14:46;;;;;;;3.03;2.15;;;;;;;;;;5056682;28;20209;-69
2022/07/05 03:17:12;;;;;;;3.03;2.30;;;;;;;;;;5056534;28;20223;-68
2022/07/05 03:19:39;;;;;;;3.25;2.22;;;;;;;;;;5056461;28;20529;-68
2022/07/05 03:22:05;;;;;;;3.65;2.42;;;;;;;;;;5056315;28;20228;-69
2022/07/05 03:24:32;;;;;;;2.60;2.40;;;;;;;;;;5056330;28;20224;-69
2022/07/05 03:26:59;;;;;;;5.18;2.78;;;;;;;;;;5055869;28;20216;-68
2022/07/05 03:29:25;;;;;;;8.20;3.17;;;;;;;;;;5055934;28;20209;-68
2022/07/05 03:31:51;;;;;;;5.88;3.80;;;;;;;;;;5056207;28;20216;-68
2022/07/05 03:34:18;;;;;;;3.47;3.28;;;;;;;;;;5056081;28;20516;-68
2022/07/05 03:36:44;;;;;;;5.00;3.30;;;;;;;;;;5056035;28;20209;-68
2022/07/05 03:39:10;;;;;;;5.93;2.83;;;;;;;;;;5055719;28;20223;-68
2022/07/05 03:41:38;;;;;;;3.45;2.75;;;;;;;;;;5056618;28;20228;-68
2022/07/05 03:44:04;;;;;;;2.40;2.17;;;;;;;;;;5056501;28;20216;-68
2022/07/05 03:46:30;;;;;;;3.00;2.28;;;;;;;;;;5056166;28;20516;-68
2022/07/05 03:48:57;;;;;;;4.13;2.33;;;;;;;;;;5055861;28;20539;-68
2022/07/05 03:51:23;;;;;;;4.25;2.30;;;;;;;;;;5056267;28;20208;-68
2022/07/05 03:53:49;;;;;;;3.58;2.40;;;;;;;;;;5058814;28;20506;-68
2022/07/05 03:56:19;;;;;;;2.40;2.20;;;;;;;;;;5059894;28;20517;-68
2022/07/05 03:58:47;;;;;;;4.65;2.25;;;;;;;;;;5059764;28;20215;-68
2022/07/05 04:01:13;;;;;;;3.90;2.60;;;;;;;;;;5059803;28;20536;-68
2022/07/05 04:03:40;;;;;;;2.40;2.30;;;;;;;;;;5060145;28;20216;-68
2022/07/05 04:06:06;;;;;;;4.50;2.30;;;;;;;;;;5059672;28;20267;-68
2022/07/05 04:08:32;;;;;;;3.47;2.70;;;;;;;;;;5059784;28;20217;-68
2022/07/05 04:10:59;;;;;;;2.65;2.47;;;;;;;;;;5060047;28;20520;-68
2022/07/05 04:13:25;;;;;;;2.65;2.30;;;;;;;;;;5059843;28;20208;-68
2022/07/05 04:15:53;;;;;;;2.90;2.53;;;;;;;;;;5059740;28;20296;-67
2022/07/05 04:18:19;;;;;;;8.68;2.80;;;;;;;;;;5059430;28;20794;-67
2022/07/05 04:20:45;;;;;;;3.67;2.40;;;;;;;;;;5059535;28;20224;-67
2022/07/05 04:23:11;;;;;;;3.30;3.00;;;;;;;;;;5059843;28;20217;-68
2022/07/05 04:25:38;;;;;;;2.97;2.70;;;;;;;;;;5059837;28;20217;-67
2022/07/05 04:28:05;;;;;;;2.58;2.42;;;;;;;;;;5059201;28;20211;-67
2022/07/05 04:30:31;;;;;;;3.60;2.50;;;;;;;;;;5059489;28;20209;-68
2022/07/05 04:32:58;;;;;;;4.05;2.83;;;;;;;;;;5059855;28;20414;-68
2022/07/05 04:35:25;;;;;;;3.60;2.85;;;;;;;;;;5059886;28;20215;-68
2022/07/05 04:37:51;;;;;;;2.85;2.63;;;;;;;;;;5059408;28;20209;-69
2022/07/05 04:40:17;;;;;;;2.88;2.72;;;;;;;;;;5059241;28;20216;-68
2022/07/05 04:42:44;;;;;;;4.15;2.67;;;;;;;;;;5059406;28;20676;-68
2022/07/05 04:45:10;;;;;;;4.07;2.42;;;;;;;;;;5059405;28;20404;-68
2022/07/05 04:47:36;;;;;;;3.35;2.92;;;;;;;;;;5058855;28;20213;-68
2022/07/05 04:50:05;;;;;;;2.67;2.42;;;;;;;;;;5058715;28;20209;-68
2022/07/05 04:52:31;;;;;;;2.90;2.70;;;;;;;;;;5059286;28;20211;-68
2022/07/05 04:54:58;;;;;;;7.57;2.60;;;;;;;;;;5059104;28;20213;-68
2022/07/05 04:57:24;;;;;;;2.65;2.53;;;;;;;;;;5058805;28;20212;-68
2022/07/05 04:59:50;;;;;;;3.33;3.20;;;;;;;;;;5059029;28;20213;-68
2022/07/05 05:02:17;;;;;;;3.33;3.10;;;;;;;;;;5058731;28;20422;-68
2022/07/05 05:04:43;;;;;;;4.70;3.60;;;;;;;;;;5057849;28;20205;-68
2022/07/05 05:07:11;;;;;;;6.72;3.30;;;;;;;;;;5057688;28;20209;-68
2022/07/05 05:09:37;;;;;;;4.97;3.22;;;;;;;;;;5058135;28;20540;-68
2022/07/05 05:12:04;;;;;;;7.78;3.85;;;;;;;;;;5058358;28;20237;-68
2022/07/05 05:14:30;;;;;;;3.70;3.50;;;;;;;;;;5058422;28;20216;-68
2022/07/05 05:16:56;;;;;;;5.55;4.00;;;;;;;;;;5058196;28;20209;-68
2022/07/05 05:19:22;;;;;;;6.47;3.90;;;;;;;;;;5057886;28;20224;-68
2022/07/05 05:21:49;;;;;;;4.47;3.65;;;;;;;;;;5058659;28;20567;-68
2022/07/05 05:24:16;;;;;;;5.05;3.58;;;;;;;;;;5058846;28;20213;-68
2022/07/05 05:26:42;;;;;;;5.68;4.07;;;;;;;;;;5058468;28;20212;-68
2022/07/05 05:29:09;;;;;;;3.83;3.60;;;;;;;;;;5057564;28;20209;-68
2022/07/05 05:31:35;;;;;;;3.92;3.25;;;;;;;;;;5058024;28;20216;-68
2022/07/05 05:34:01;;;;;;;6.85;3.28;;;;;;;;;;5057949;28;20300;-68
2022/07/05 05:36:27;;;;;;;5.47;3.60;;;;;;;;;;5057869;28;20517;-68
2022/07/05 05:38:54;;;;;;;5.22;3.60;;;;;;;;;;5057662;28;20212;-68
2022/07/05 05:41:21;;;;;;;3.80;3.50;;;;;;;;;;5057959;28;20215;-68
2022/07/05 05:43:48;;;;;;;3.70;3.40;;;;;;;;;;5058265;28;20552;-68
2022/07/05 05:46:14;;;;;;;4.03;3.50;;;;;;;;;;5057913;28;20452;-68
2022/07/05 05:48:40;;;;;;;3.65;3.35;;;;;;;;;;5057898;28;20217;-68
2022/07/05 05:51:06;;;;;;;5.75;3.00;;;;;;;;;;5058226;28;20216;-68
2022/07/05 05:53:33;;;;;;;4.95;3.10;;;;;;;;;;5057873;28;20205;-68
2022/07/05 05:55:59;;;;;;;3.50;3.20;;;;;;;;;;5057828;28;20219;-68
2022/07/05 05:58:27;;;;;;;4.68;4.20;;;;;;;;;;5057612;28;20209;-68
2022/07/05 06:00:53;;;;;;;4.47;3.40;;;;;;;;;;5057333;28;20405;-68
2022/07/05 06:03:20;;;;;;;5.07;3.55;;;;;;;;;;5057718;28;20568;-68
2022/07/05 06:05:46;;;;;;;3.97;3.75;;;;;;;;;;5057953;28;20412;-68
2022/07/05 06:08:13;;;;;;;5.63;3.42;;;;;;;;;;5057098;28;20215;-68
2022/07/05 06:10:39;;;;;;;3.83;3.47;;;;;;;;;;5057299;28;20516;-68
2022/07/05 06:13:07;;;;;;;4.05;3.30;;;;;;;;;;5057752;28;20527;-59
2022/07/05 06:15:35;;;;;;;3.38;3.17;;;;;;;;;;5057494;28;20209;-60
2022/07/05 06:18:01;;;;;;;6.30;3.28;;;;;;;;;;5056964;28;20232;-60
2022/07/05 06:20:29;;;;;;;2.83;2.50;;;;;;;;;;5056651;28;20508;-60
2022/07/05 06:22:56;;;;;;;4.70;3.05;;;;;;;;;;5056891;28;20229;-60
2022/07/05 06:25:22;;;;;;;3.38;3.00;;;;;;;;;;5056906;28;20559;-60
2022/07/05 06:27:49;;;;;;;7.45;3.40;;;;;;;;;;5056216;28;20475;-60
2022/07/05 06:30:16;;;;;;;3.15;2.75;;;;;;;;;;5056578;28;20232;-60
2022/07/05 06:32:45;;;;;;;3.08;2.78;;;;;;;;;;5056554;28;20507;-61
2022/07/05 06:35:11;;;;;;;2.78;2.58;;;;;;;;;;5053748;28;20210;-61
2022/07/05 06:37:42;;;;;;;5.40;2.38;;;;;;;;;;5051109;28;20213;-61
2022/07/05 06:40:09;;;;;;;5.93;2.88;;;;;;;;;;5053945;28;20486;-61
2022/07/05 06:42:36;;;;;;;2.90;2.63;;;;;;;;;;5054872;28;20225;-62
2022/07/05 06:45:02;;;;;;;2.80;2.38;;;;;;;;;;5055256;28;20537;-61
2022/07/05 06:47:28;;;;;;;4.78;2.40;;;;;;;;;;5057629;28;20208;-63
2022/07/05 06:49:58;;;;;;;6.25;3.20;;;;;;;;;;5045480;28;20332;-62
2022/07/05 06:52:24;;;;;;;4.03;2.90;;;;;;;;;;5050917;28;20205;-62
2022/07/05 06:54:50;;;;;;;4.95;3.60;;;;;;;;;;5058890;28;20212;-63
2022/07/05 06:57:19;;;;;;;10.70;5.70;;;;;;;;;;5059155;28;20224;-61
2022/07/05 06:59:45;;;;;;;6.95;4.57;;;;;;;;;;5054005;28;20213;-62
2022/07/05 07:02:12;;;;;;;4.38;2.97;;;;;;;;;;5045390;28;20263;-63
2022/07/05 07:04:38;;;;;;;6.72;2.85;;;;;;;;;;5054542;28;20224;-63
2022/07/05 07:09:17;;;;;;;6.25;4.32;;;;;;;;;;5048499;28;20431;-61
2022/07/05 07:09:51;;;;;;;3.17;2.85;;;;;;;;;;5042503;28;20212;-62
2022/07/05 07:12:17;;;;;;;5.15;2.63;;;;;;;;;;5053453;28;20244;-61
2022/07/05 07:14:43;;;;;;;5.07;3.05;;;;;;;;;;5037507;28;20221;-61
2022/07/05 07:17:10;;;;;;;6.57;2.65;;;;;;;;;;5036520;28;20213;-62
2022/07/05 07:19:36;;;;;;;4.97;2.47;;;;;;;;;;5037371;28;20553;-62
2022/07/05 07:22:02;;;;;;;6.07;2.45;;;;;;;;;;5036851;28;20205;-62
2022/07/05 07:24:30;;;;;;;3.42;2.50;;;;;;;;;;5037860;28;20214;-63
2022/07/05 07:27:06;;;;;;;4.88;2.60;;;;;;;;;;5053496;28;20212;-63
2022/07/05 07:29:33;;;;;;;2.75;1.90;;;;;;;;;;5040775;28;20251;-61
2022/07/05 07:32:00;;;;;;;3.92;2.53;;;;;;;;;;5050337;28;20212;-61
2022/07/05 07:34:26;;;;;;;3.30;2.13;;;;;;;;;;5054843;28;20208;-63
2022/07/05 07:36:53;;;;;;;4.20;2.40;;;;;;;;;;5056937;28;20217;-60
2022/07/05 07:39:19;;;;;;;9.57;5.85;;;;;;;;;;5038091;28;20216;-60
2022/07/05 07:41:47;;;;;;;3.20;2.28;;;;;;;;;;5055322;28;20287;-62
2022/07/05 07:44:13;;;;;;;3.45;2.35;;;;;;;;;;5056485;28;20231;-62
2022/07/05 07:46:40;;;;;;;5.25;3.90;;;;;;;;;;5057576;28;20217;-61
2022/07/05 07:49:06;;;;;;;3.38;3.08;;;;;;;;;;5056440;28;20205;-62
2022/07/05 07:51:33;;;;;;;3.95;3.30;;;;;;;;;;5056703;28;20209;-63
2022/07/05 07:53:59;;;;;;;5.43;2.20;;;;;;;;;;5056850;28;20524;-61
2022/07/05 07:56:25;;;;;;;5.35;1.98;;;;;;;;;;5041435;28;20213;-62
2022/07/05 07:58:53;;;;;;;4.03;2.10;;;;;;;;;;5037385;28;20414;-61
2022/07/05 08:01:20;;;;;;;3.90;2.00;;;;;;;;;;5045634;28;20237;-61
2022/07/05 08:03:46;;;;;;;2.97;1.75;;;;;;;;;;5040444;28;20532;-61
2022/07/05 08:06:13;;;;;;;1.33;1.20;;;;;;;;;;5045854;28;20375;-61
2022/07/05 08:08:40;;;;;;;4.97;1.55;;;;;;;;;;5036503;28;20213;-61
2022/07/05 08:11:06;;;;;;;5.22;1.60;;;;;;;;;;5039629;28;20201;-61
2022/07/05 08:13:33;;;;;;;2.75;1.40;;;;;;;;;;5036638;28;20206;-61
2022/07/05 08:16:00;;;;;;;1.70;1.45;;;;;;;;;;5039396;28;20536;-62
2022/07/05 08:23:54;;;;;;;2.15;1.40;;;;;;;;;;5056751;28;20232;-62
2022/07/05 08:26:21;;;;;;;6.68;1.70;;;;;;;;;;5055985;28;20215;-62
2022/07/05 08:28:47;;;;;;;2.83;2.17;;;;;;;;;;5056806;28;20209;-62
2022/07/05 08:31:15;;;;;;;4.10;1.40;;;;;;;;;;5039877;28;20332;-62
2022/07/05 08:33:41;;;;;;;3.20;1.50;;;;;;;;;;5056151;28;20556;-62
2022/07/05 08:36:08;;;;;;;4.70;1.20;;;;;;;;;;5055317;28;20508;-61
2022/07/05 08:38:34;;;;;;;1.73;1.05;;;;;;;;;;5047750;28;20217;-62
2022/07/05 08:41:01;;;;;;;5.75;1.65;;;;;;;;;;5038391;28;20216;-62
2022/07/05 08:43:28;;;;;;;5.53;1.52;;;;;;;;;;5040578;28;20244;-61
2022/07/05 08:45:56;;;;;;;7.90;1.30;;;;;;;;;;5039643;28;20427;-62
2022/07/05 08:48:24;;;;;;;5.25;1.27;;;;;;;;;;5039882;28;20451;-62
2022/07/05 08:50:51;;;;;;;0.98;0.88;;;;;;;;;;5042284;28;20216;-62
2022/07/05 08:53:18;;;;;;;1.40;1.13;;;;;;;;;;5056034;28;20445;-62
2022/07/05 08:55:45;;;;;;;463.60;36.78;;;;;;;;;;5055640;28;20219;-62
2022/07/05 08:58:12;;;;;;;17.77;2.45;;;;;;;;;;5059092;28;20507;-61
2022/07/05 09:00:39;;;;;;;1.73;1.00;;;;;;;;;;5058197;28;20215;-61
2022/07/05 09:03:05;;;;;;;5.85;1.08;;;;;;;;;;5054584;28;20229;-62
2022/07/05 09:05:35;;;;;;;1.73;0.80;;;;;;;;;;5037444;28;20343;-62
2022/07/05 09:08:02;;;;;;;1.05;0.90;;;;;;;;;;5050550;28;20205;-62
2022/07/05 09:10:29;;;;;;;4.10;0.98;;;;;;;;;;5051508;28;20221;-62
2022/07/05 09:12:55;;;;;;;4.20;0.70;;;;;;;;;;5055186;28;20212;-62
2022/07/05 09:15:22;;;;;;;4.43;0.77;;;;;;;;;;5059185;28;20208;-62
2022/07/05 09:17:48;;;;;;;5.95;0.80;;;;;;;;;;5058274;28;20431;-62
2022/07/05 09:20:15;;;;;;;0.95;0.73;;;;;;;;;;5059033;28;20220;-63
2022/07/05 09:22:44;;;;;;;2.13;0.93;;;;;;;;;;5044746;28;20225;-62
2022/07/05 09:25:14;;;;;;;1.42;0.77;;;;;;;;;;5038942;28;20209;-62
2022/07/05 09:27:47;;;;;;;3.60;0.85;;;;;;;;;;5038497;28;20209;-63
2022/07/05 09:30:24;;;;;;;3.13;0.70;;;;;;;;;;5038657;28;20420;-62
2022/07/05 09:32:59;;;;;;;2.67;0.80;;;;;;;;;;5045533;28;20223;-62
2022/07/05 09:35:26;;;;;;;1.70;0.47;;;;;;;;;;5046865;28;20239;-63
2022/07/05 09:37:53;;;;;;;3.10;0.60;;;;;;;;;;5038443;28;20521;-62
2022/07/05 09:40:20;;;;;;;5.88;0.57;;;;;;;;;;5054637;28;20473;-61
2022/07/05 09:42:46;;;;;;;0.60;0.60;;;;;;;;;;5058589;28;20208;-61
2022/07/05 09:45:13;;;;;;;2.05;0.60;;;;;;;;;;5058467;28;20538;-61
2022/07/05 09:47:39;;;;;;;1.65;0.60;;;;;;;;;;5053847;28;20209;-62
2022/07/05 09:50:07;;;;;;;4.00;0.60;;;;;;;;;;5057742;28;20211;-62
2022/07/05 09:52:33;;;;;;;1.08;0.50;;;;;;;;;;5054629;28;20216;-62
2022/07/05 09:55:05;;;;;;;3.42;0.73;;;;;;;;;;5038654;28;20216;-62
2022/07/05 09:57:32;;;;;;;3.08;0.70;;;;;;;;;;5054900;28;20688;-62
2022/07/05 09:59:59;;;;;;;2.13;0.73;;;;;;;;;;5058306;28;20216;-62
2022/07/05 10:02:34;;;;;;;2.65;0.80;;;;;;;;;;5059350;28;20256;-62
2022/07/05 10:05:09;;;;;;;2.25;0.60;;;;;;;;;;5055506;28;20224;-62
2022/07/05 10:07:36;;;;;;;1.48;0.70;;;;;;;;;;5058599;28;20208;-62
2022/07/05 10:10:02;;;;;;;1.65;0.80;;;;;;;;;;5057913;28;20434;-62
2022/07/05 10:12:30;;;;;;;1.48;0.80;;;;;;;;;;5058775;28;20208;-62
2022/07/05 10:14:58;;;;;;;4.03;0.90;;;;;;;;;;5058270;28;20207;-62
2022/07/05 10:17:24;;;;;;;1.55;0.63;;;;;;;;;;5058136;28;20539;-62
2022/07/05 10:19:52;;;;;;;1.27;0.50;;;;;;;;;;5058053;28;20546;-62
2022/07/05 10:22:18;;;;;;;4.93;0.57;;;;;;;;;;5049622;28;20247;-62
2022/07/05 10:24:45;;;;;;;4.65;0.70;;;;;;;;;;5047438;28;20224;-62
2022/07/05 10:27:11;;;;;;;0.80;0.80;;;;;;;;;;5052483;28;20244;-62
2022/07/05 10:29:39;;;;;;;5.10;0.60;;;;;;;;;;5039600;28;20210;-62
2022/07/05 10:32:08;;;;;;;0.65;0.60;;;;;;;;;;5044710;28;20213;-62
2022/07/05 10:34:35;;;;;;;3.60;0.60;;;;;;;;;;5052767;28;20205;-62
2022/07/05 10:37:01;;;;;;;1.10;0.50;;;;;;;;;;5037291;28;20227;-63
2022/07/05 10:39:28;;;;;;;1.45;0.77;;;;;;;;;;5037978;28;20201;-62
2022/07/05 10:41:55;;;;;;;2.80;0.70;;;;;;;;;;5056562;28;20208;-62
2022/07/05 10:44:31;;;;;;;4.60;0.80;;;;;;;;;;5046561;28;20579;-62
2022/07/05 10:47:10;;;;;;;1.85;0.60;;;;;;;;;;5042133;28;20209;-62
2022/07/05 10:49:36;;;;;;;3.15;1.10;;;;;;;;;;5055284;28;20215;-62
2022/07/05 10:52:03;;;;;;;1.40;0.70;;;;;;;;;;5057085;28;20213;-61
2022/07/05 10:54:29;;;;;;;0.90;0.80;;;;;;;;;;5045076;28;20206;-62
2022/07/05 10:57:14;;;;;;;1.98;0.63;;;;;;;;;;5057426;28;20212;-62
2022/07/05 10:59:55;;;;;;;1.52;0.68;;;;;;;;;;5057055;28;20227;-62
2022/07/05 11:02:23;;;;;;;0.65;0.65;;;;;;;;;;5056392;28;20215;-62
2022/07/05 11:04:55;;;;;;;3.38;0.70;;;;;;;;;;5057053;28;20578;-63
2022/07/05 11:07:37;;;;;;;1.63;0.52;;;;;;;;;;5056876;28;20571;-63
2022/07/05 11:10:05;;;;;;;3.95;0.65;;;;;;;;;;5046166;28;20240;-63
2022/07/05 11:12:36;;;;;;;6.43;1.05;;;;;;;;;;5036986;28;20559;-62
2022/07/05 11:15:05;;;;;;;3.25;0.73;;;;;;;;;;5057212;28;20205;-62
2022/07/05 11:17:34;;;;;;;2.42;0.75;;;;;;;;;;5040125;28;20509;-63
2022/07/05 11:20:25;;;;;;;3.50;0.55;;;;;;;;;;5056996;28;20570;-61
2022/07/05 11:23:02;;;;;;;3.00;0.50;;;;;;;;;;5038036;28;20283;-61
2022/07/05 11:25:31;;;;;;;0.60;0.60;;;;;;;;;;5042145;28;20235;-61
2022/07/05 11:28:00;;;;;;;3.42;0.60;;;;;;;;;;5052498;28;20208;-61
2022/07/05 11:30:27;;;;;;;1.98;0.60;;;;;;;;;;5057417;28;20208;-60
2022/07/05 11:32:54;;;;;;;1.10;0.43;;;;;;;;;;5056667;28;20208;-61
2022/07/05 11:35:21;;;;;;;0.90;0.55;;;;;;;;;;5056165;28;20208;-61
2022/07/05 11:38:00;;;;;;;0.35;0.35;;;;;;;;;;5052072;28;20209;-62
2022/07/05 11:40:28;;;;;;;0.73;0.43;;;;;;;;;;5041215;28;20500;-61
2022/07/05 11:42:54;;;;;;;1.88;0.60;;;;;;;;;;5038825;28;20216;-63
2022/07/05 11:45:21;;;;;;;3.60;0.65;;;;;;;;;;5044579;28;20560;-62
2022/07/05 11:47:47;;;;;;;3.85;0.57;;;;;;;;;;5057025;28;20208;-61
2022/07/05 11:50:15;;;;;;;1.48;0.55;;;;;;;;;;5056707;28;20415;-61
2022/07/05 11:52:42;;;;;;;2.33;0.50;;;;;;;;;;5056989;28;20421;-62
2022/07/05 11:55:09;;;;;;;2.13;0.57;;;;;;;;;;5038098;28;20211;-62
2022/07/05 11:57:35;;;;;;;1.85;0.45;;;;;;;;;;5037398;28;20241;-63
2022/07/05 12:00:02;;;;;;;2.85;0.60;;;;;;;;;;5053384;28;20509;-65
2022/07/05 12:02:28;;;;;;;5.10;0.55;;;;;;;;;;5053808;28;20213;-62
2022/07/05 12:04:55;;;;;;;0.98;0.52;;;;;;;;;;5057518;28;20237;-61
2022/07/05 12:07:26;;;;;;;1.60;0.50;;;;;;;;;;5048764;28;20209;-63
2022/07/05 12:12:47;;;;;;;1.98;0.65;;;;;;;;;;5053366;28;20238;-64
2022/07/05 12:15:14;;;;;;;1.67;0.55;;;;;;;;;;5058061;28;20220;-63
2022/07/05 12:17:41;;;;;;;6.25;1.23;;;;;;;;;;5060077;28;20236;-62
2022/07/05 12:20:09;;;;;;;2.40;0.60;;;;;;;;;;5059612;28;20474;-62
2022/07/05 12:22:37;;;;;;;5.07;0.60;;;;;;;;;;5060905;28;20208;-61
2022/07/05 12:25:04;;;;;;;0.93;0.40;;;;;;;;;;5059833;28;20243;-62
2022/07/05 12:27:32;;;;;;;3.50;0.55;;;;;;;;;;5056478;28;20208;-63
2022/07/05 12:29:59;;;;;;;1.13;0.70;;;;;;;;;;5056849;28;20512;-62
2022/07/05 12:32:25;;;;;;;0.60;0.60;;;;;;;;;;5056530;28;20517;-62
2022/07/05 12:34:51;;;;;;;17.27;1.98;;;;;;;;;;5051548;28;20227;-61
2022/07/05 12:37:20;;;;;;;45.05;4.30;;;;;;;;;;5057277;28;20213;-62
2022/07/05 12:39:48;;;;;;;5.35;0.95;;;;;;;;;;5048512;28;20213;-61
2022/07/05 12:42:32;;;;;;;3.60;0.80;;;;;;;;;;5044094;28;20209;-62
2022/07/05 12:45:06;;;;;;;1.40;0.60;;;;;;;;;;5052534;28;20229;-61
2022/07/05 12:47:37;;;;;;;2.05;0.60;;;;;;;;;;5039799;28;20212;-61
2022/07/05 12:50:03;;;;;;;0.55;0.55;;;;;;;;;;5056145;28;20220;-61
2022/07/05 12:52:29;;;;;;;1.83;0.40;;;;;;;;;;5045549;28;20213;-61
2022/07/05 12:58:03;;;;;;;0.57;0.52;;;;;;;;;;5056219;28;20554;-61
2022/07/05 13:00:29;;;;;;;1.55;0.55;;;;;;;;;;5042048;28;20467;-62
2022/07/05 13:02:56;;;;;;;4.00;0.63;;;;;;;;;;5057411;28;20209;-63
2022/07/05 13:05:24;;;;;;;0.77;0.70;;;;;;;;;;5056685;28;20331;-62
2022/07/05 13:07:51;;;;;;;1.40;0.80;;;;;;;;;;5056382;28;20564;-62
2022/07/05 13:10:18;;;;;;;0.80;0.80;;;;;;;;;;5053550;28;20215;-62
2022/07/05 13:12:45;;;;;;;2.28;0.50;;;;;;;;;;5036439;28;20308;-61
2022/07/05 13:15:12;;;;;;;2.40;0.65;;;;;;;;;;5036540;28;20217;-62
2022/07/05 13:17:39;;;;;;;1.80;0.60;;;;;;;;;;5053839;28;20470;-61
2022/07/05 13:20:05;;;;;;;2.35;0.70;;;;;;;;;;5055707;28;20220;-62
2022/07/05 13:22:31;;;;;;;0.68;0.68;;;;;;;;;;5056125;28;20220;-61
2022/07/05 13:24:58;;;;;;;1.50;0.70;;;;;;;;;;5052602;28;20237;-62
2022/07/05 13:27:24;;;;;;;2.30;0.68;;;;;;;;;;5040031;28;20235;-64
2022/07/05 13:29:50;;;;;;;1.42;0.55;;;;;;;;;;5054542;28;20219;-64
2022/07/05 13:32:21;;;;;;;1.10;0.50;;;;;;;;;;5041453;28;20217;-63
2022/07/05 13:34:48;;;;;;;0.47;0.47;;;;;;;;;;5036208;28;20202;-61
2022/07/05 13:37:15;;;;;;;2.38;0.80;;;;;;;;;;5035499;28;21082;-63
2022/07/05 13:39:41;;;;;;;1.80;0.60;;;;;;;;;;5035417;28;20213;-63
2022/07/05 13:42:07;;;;;;;2.40;0.73;;;;;;;;;;5048050;28;20213;-62
2022/07/05 13:44:34;;;;;;;1.52;0.75;;;;;;;;;;5036088;28;20241;-62
2022/07/05 13:47:00;;;;;;;4.75;0.60;;;;;;;;;;5047729;28;20713;-62
2022/07/05 13:49:29;;;;;;;3.05;0.60;;;;;;;;;;5037358;28;20579;-62
2022/07/05 13:51:56;;;;;;;2.50;0.60;;;;;;;;;;5055630;28;20232;-62
2022/07/05 13:54:22;;;;;;;1.73;0.98;;;;;;;;;;5055871;28;20439;-63
2022/07/05 13:56:49;;;;;;;2.60;0.63;;;;;;;;;;5043213;28;20219;-62
2022/07/05 13:59:15;;;;;;;3.20;0.70;;;;;;;;;;5053244;28;20216;-64
2022/07/05 14:01:41;;;;;;;1.80;0.80;;;;;;;;;;5034756;28;20452;-71
2022/07/05 14:04:07;;;;;;;1.10;0.70;;;;;;;;;;5040795;28;20219;-69
2022/07/05 14:06:37;;;;;;;1.83;0.70;;;;;;;;;;5054977;28;20228;-70
2022/07/05 14:09:05;;;;;;;1.70;0.47;;;;;;;;;;5035553;28;20272;-69
2022/07/05 14:11:31;;;;;;;2.78;0.70;;;;;;;;;;5041263;28;20205;-72
2022/07/05 14:13:57;;;;;;;1.48;0.68;;;;;;;;;;5035796;28;20220;-72
2022/07/05 14:16:24;;;;;;;1.10;0.70;;;;;;;;;;5034799;28;20586;-72
2022/07/05 14:18:50;;;;;;;1.65;0.80;;;;;;;;;;5034872;28;20227;-72
2022/07/05 14:21:17;;;;;;;2.65;0.70;;;;;;;;;;5035386;28;20280;-71
2022/07/05 14:23:46;;;;;;;1.88;0.70;;;;;;;;;;5035402;28;20213;-71
2022/07/05 14:26:12;;;;;;;3.60;0.80;;;;;;;;;;5043362;28;20575;-71
2022/07/05 14:28:38;;;;;;;1.40;0.85;;;;;;;;;;5053120;28;20457;-71
2022/07/05 14:31:05;;;;;;;1.42;0.93;;;;;;;;;;5054799;28;20205;-71
2022/07/05 14:33:31;;;;;;;2.63;0.80;;;;;;;;;;5055004;28;20551;-71
2022/07/05 14:35:57;;;;;;;4.35;0.88;;;;;;;;;;5051179;28;20424;-72
2022/07/05 14:38:24;;;;;;;1.00;0.50;;;;;;;;;;5046438;28;20218;-72
2022/07/05 14:40:51;;;;;;;1.55;0.60;;;;;;;;;;5045690;28;20228;-71
2022/07/05 14:43:17;;;;;;;1.55;0.60;;;;;;;;;;5053952;28;20616;-71
2022/07/05 14:45:44;;;;;;;2.15;0.50;;;;;;;;;;5054734;28;20251;-72
2022/07/05 14:48:10;;;;;;;3.75;1.05;;;;;;;;;;5049034;28;20228;-72
2022/07/05 14:50:36;;;;;;;1.48;0.60;;;;;;;;;;5034592;28;20220;-71
2022/07/05 14:53:07;;;;;;;3.28;0.70;;;;;;;;;;5034371;28;20213;-71
2022/07/05 14:55:34;;;;;;;2.20;0.80;;;;;;;;;;5034855;28;20477;-72